sensor_id;sensor_type;location;lat;lon;timestamp;P1;durP1;ratioP1;P2;durP2;ratioP2
75818;SDS011;64453;51.944;9.796;2022-11-23T00:01:32;2.93;;;2.40;;
75818;SDS011;64453;51.944;9.796;2022-11-23T00:04:01;3.00;;;2.47;;
75818;SDS011;64453;51.944;9.796;2022-11-23T00:06:30;3.83;;;2.30;;
75818;SDS011;64453;51.944;9.796;2022-11-23T00:09:01;6.70;;;2.10;;
75818;SDS011;64453;51.944;9.796;2022-11-23T00:11:28;2.50;;;2.10;;
75818;SDS011;64453;51.944;9.796;2022-11-23T00:13:55;2.40;;;2.20;;
75818;SDS011;64453;51.944;9.796;2022-11-23T00:16:23;3.20;;;1.90;;
75818;SDS011;64453;51.944;9.796;2022-11-23T00:18:53;5.67;;;2.27;;
75818;SDS011;64453;51.944;9.796;2022-11-23T00:21:22;1.87;;;1.73;;
75818;SDS011;64453;51.944;9.796;2022-11-23T00:23:51;2.80;;;2.53;;
75818;SDS011;64453;51.944;9.796;2022-11-23T00:26:20;3.63;;;2.47;;
75818;SDS011;64453;51.944;9.796;2022-11-23T00:28:47;2.83;;;2.07;;
75818;SDS011;64453;51.944;9.796;2022-11-23T00:31:15;3.70;;;2.10;;
75818;SDS011;64453;51.944;9.796;2022-11-23T00:33:47;1.90;;;1.80;;
75818;SDS011;64453;51.944;9.796;2022-11-23T00:36:17;3.23;;;1.80;;
75818;SDS011;64453;51.944;9.796;2022-11-23T00:38:46;2.60;;;2.30;;
75818;SDS011;64453;51.944;9.796;2022-11-23T00:41:14;2.00;;;1.77;;
75818;SDS011;64453;51.944;9.796;2022-11-23T00:43:44;2.87;;;1.80;;
75818;SDS011;64453;51.944;9.796;2022-11-23T00:46:13;2.77;;;1.97;;
75818;SDS011;64453;51.944;9.796;2022-11-23T00:48:42;2.00;;;1.80;;
75818;SDS011;64453;51.944;9.796;2022-11-23T00:51:10;3.33;;;2.00;;
75818;SDS011;64453;51.944;9.796;2022-11-23T00:53:41;3.40;;;2.20;;
75818;SDS011;64453;51.944;9.796;2022-11-23T00:56:08;7.00;;;2.37;;
75818;SDS011;64453;51.944;9.796;2022-11-23T00:58:36;3.70;;;1.80;;
75818;SDS011;64453;51.944;9.796;2022-11-23T01:01:04;2.30;;;1.87;;
75818;SDS011;64453;51.944;9.796;2022-11-23T01:03:34;3.03;;;1.63;;
75818;SDS011;64453;51.944;9.796;2022-11-23T01:06:03;3.53;;;2.47;;
75818;SDS011;64453;51.944;9.796;2022-11-23T01:08:32;2.97;;;1.87;;
75818;SDS011;64453;51.944;9.796;2022-11-23T01:11:01;6.03;;;2.20;;
75818;SDS011;64453;51.944;9.796;2022-11-23T01:13:30;4.70;;;2.00;;
75818;SDS011;64453;51.944;9.796;2022-11-23T01:15:58;3.07;;;1.90;;
75818;SDS011;64453;51.944;9.796;2022-11-23T01:18:25;1.67;;;1.57;;
75818;SDS011;64453;51.944;9.796;2022-11-23T01:20:53;3.67;;;1.60;;
75818;SDS011;64453;51.944;9.796;2022-11-23T01:23:20;1.80;;;1.50;;
75818;SDS011;64453;51.944;9.796;2022-11-23T01:25:47;2.87;;;1.83;;
75818;SDS011;64453;51.944;9.796;2022-11-23T01:28:15;1.90;;;1.70;;
75818;SDS011;64453;51.944;9.796;2022-11-23T01:30:42;3.27;;;1.83;;
75818;SDS011;64453;51.944;9.796;2022-11-23T01:33:09;5.03;;;1.70;;
75818;SDS011;64453;51.944;9.796;2022-11-23T01:35:36;2.87;;;1.67;;
75818;SDS011;64453;51.944;9.796;2022-11-23T01:38:03;2.40;;;1.67;;
75818;SDS011;64453;51.944;9.796;2022-11-23T01:40:37;2.90;;;1.73;;
75818;SDS011;64453;51.944;9.796;2022-11-23T01:43:09;3.80;;;1.90;;
75818;SDS011;64453;51.944;9.796;2022-11-23T01:45:42;2.30;;;1.40;;
75818;SDS011;64453;51.944;9.796;2022-11-23T01:48:24;2.47;;;1.47;;
75818;SDS011;64453;51.944;9.796;2022-11-23T01:50:56;1.70;;;1.60;;
75818;SDS011;64453;51.944;9.796;2022-11-23T01:53:26;3.63;;;1.70;;
75818;SDS011;64453;51.944;9.796;2022-11-23T01:55:56;2.63;;;2.00;;
75818;SDS011;64453;51.944;9.796;2022-11-23T01:58:26;2.40;;;1.90;;
75818;SDS011;64453;51.944;9.796;2022-11-23T02:00:58;3.73;;;2.03;;
75818;SDS011;64453;51.944;9.796;2022-11-23T02:03:25;1.73;;;1.50;;
75818;SDS011;64453;51.944;9.796;2022-11-23T02:05:55;2.40;;;1.77;;
75818;SDS011;64453;51.944;9.796;2022-11-23T02:08:26;1.83;;;1.73;;
75818;SDS011;64453;51.944;9.796;2022-11-23T02:10:54;3.13;;;1.87;;
75818;SDS011;64453;51.944;9.796;2022-11-23T02:13:23;4.10;;;1.70;;
75818;SDS011;64453;51.944;9.796;2022-11-23T02:15:51;1.73;;;1.30;;
75818;SDS011;64453;51.944;9.796;2022-11-23T02:18:23;4.47;;;2.00;;
75818;SDS011;64453;51.944;9.796;2022-11-23T02:20:53;2.50;;;1.53;;
75818;SDS011;64453;51.944;9.796;2022-11-23T02:23:25;4.00;;;1.73;;
75818;SDS011;64453;51.944;9.796;2022-11-23T02:26:01;2.23;;;1.43;;
75818;SDS011;64453;51.944;9.796;2022-11-23T02:28:33;1.97;;;1.40;;
75818;SDS011;64453;51.944;9.796;2022-11-23T02:31:04;3.27;;;2.13;;
75818;SDS011;64453;51.944;9.796;2022-11-23T02:33:31;1.70;;;1.60;;
75818;SDS011;64453;51.944;9.796;2022-11-23T02:35:58;3.63;;;1.70;;
75818;SDS011;64453;51.944;9.796;2022-11-23T02:38:28;3.47;;;2.20;;
75818;SDS011;64453;51.944;9.796;2022-11-23T02:40:57;3.77;;;1.83;;
75818;SDS011;64453;51.944;9.796;2022-11-23T02:43:26;3.90;;;2.23;;
75818;SDS011;64453;51.944;9.796;2022-11-23T02:45:53;2.53;;;2.30;;
75818;SDS011;64453;51.944;9.796;2022-11-23T02:48:23;6.13;;;2.23;;
75818;SDS011;64453;51.944;9.796;2022-11-23T02:50:50;4.60;;;2.17;;
75818;SDS011;64453;51.944;9.796;2022-11-23T02:53:17;4.00;;;2.07;;
75818;SDS011;64453;51.944;9.796;2022-11-23T02:55:45;5.50;;;2.00;;
75818;SDS011;64453;51.944;9.796;2022-11-23T02:58:12;3.57;;;1.87;;
75818;SDS011;64453;51.944;9.796;2022-11-23T03:00:40;2.33;;;2.03;;
75818;SDS011;64453;51.944;9.796;2022-11-23T03:03:07;2.83;;;1.77;;
75818;SDS011;64453;51.944;9.796;2022-11-23T03:05:34;3.37;;;1.80;;
75818;SDS011;64453;51.944;9.796;2022-11-23T03:08:01;2.53;;;1.90;;
75818;SDS011;64453;51.944;9.796;2022-11-23T03:10:29;5.00;;;2.13;;
75818;SDS011;64453;51.944;9.796;2022-11-23T03:12:56;4.17;;;1.87;;
75818;SDS011;64453;51.944;9.796;2022-11-23T03:15:23;3.93;;;2.03;;
75818;SDS011;64453;51.944;9.796;2022-11-23T03:17:52;5.67;;;2.07;;
75818;SDS011;64453;51.944;9.796;2022-11-23T03:20:19;4.90;;;1.97;;
75818;SDS011;64453;51.944;9.796;2022-11-23T03:22:46;5.87;;;2.00;;
75818;SDS011;64453;51.944;9.796;2022-11-23T03:25:13;4.53;;;2.27;;
75818;SDS011;64453;51.944;9.796;2022-11-23T03:27:41;4.10;;;1.80;;
75818;SDS011;64453;51.944;9.796;2022-11-23T03:30:08;5.53;;;2.17;;
75818;SDS011;64453;51.944;9.796;2022-11-23T03:32:35;4.70;;;2.37;;
75818;SDS011;64453;51.944;9.796;2022-11-23T03:35:04;5.73;;;2.77;;
75818;SDS011;64453;51.944;9.796;2022-11-23T03:37:33;5.27;;;2.30;;
75818;SDS011;64453;51.944;9.796;2022-11-23T03:39:59;3.17;;;2.13;;
75818;SDS011;64453;51.944;9.796;2022-11-23T03:42:27;4.53;;;2.20;;
75818;SDS011;64453;51.944;9.796;2022-11-23T03:44:54;3.40;;;2.17;;
75818;SDS011;64453;51.944;9.796;2022-11-23T03:47:22;3.90;;;1.97;;
75818;SDS011;64453;51.944;9.796;2022-11-23T03:49:49;3.47;;;2.37;;
75818;SDS011;64453;51.944;9.796;2022-11-23T03:52:17;3.70;;;2.20;;
75818;SDS011;64453;51.944;9.796;2022-11-23T03:54:48;4.40;;;2.10;;
75818;SDS011;64453;51.944;9.796;2022-11-23T03:57:31;5.40;;;2.30;;
75818;SDS011;64453;51.944;9.796;2022-11-23T03:59:58;5.50;;;2.07;;
75818;SDS011;64453;51.944;9.796;2022-11-23T04:02:25;2.80;;;1.87;;
75818;SDS011;64453;51.944;9.796;2022-11-23T04:04:52;4.00;;;2.23;;
75818;SDS011;64453;51.944;9.796;2022-11-23T04:07:20;5.83;;;2.30;;
75818;SDS011;64453;51.944;9.796;2022-11-23T04:09:47;4.73;;;1.90;;
75818;SDS011;64453;51.944;9.796;2022-11-23T04:12:14;6.47;;;2.30;;
75818;SDS011;64453;51.944;9.796;2022-11-23T04:14:41;3.73;;;2.00;;
75818;SDS011;64453;51.944;9.796;2022-11-23T04:17:08;6.60;;;2.50;;
75818;SDS011;64453;51.944;9.796;2022-11-23T04:19:35;3.80;;;1.87;;
75818;SDS011;64453;51.944;9.796;2022-11-23T04:22:02;5.10;;;2.80;;
75818;SDS011;64453;51.944;9.796;2022-11-23T04:24:30;3.27;;;2.33;;
75818;SDS011;64453;51.944;9.796;2022-11-23T04:26:57;4.60;;;2.40;;
75818;SDS011;64453;51.944;9.796;2022-11-23T04:29:24;6.90;;;1.90;;
75818;SDS011;64453;51.944;9.796;2022-11-23T04:31:52;4.37;;;2.20;;
75818;SDS011;64453;51.944;9.796;2022-11-23T04:34:19;5.73;;;2.30;;
75818;SDS011;64453;51.944;9.796;2022-11-23T04:36:46;2.67;;;2.10;;
75818;SDS011;64453;51.944;9.796;2022-11-23T04:39:13;3.33;;;1.87;;
75818;SDS011;64453;51.944;9.796;2022-11-23T04:41:42;2.50;;;1.77;;
75818;SDS011;64453;51.944;9.796;2022-11-23T04:44:09;2.20;;;1.97;;
75818;SDS011;64453;51.944;9.796;2022-11-23T04:46:36;4.33;;;2.00;;
75818;SDS011;64453;51.944;9.796;2022-11-23T04:49:03;3.30;;;2.00;;
75818;SDS011;64453;51.944;9.796;2022-11-23T04:51:30;4.73;;;1.77;;
75818;SDS011;64453;51.944;9.796;2022-11-23T04:53:57;4.47;;;2.13;;
75818;SDS011;64453;51.944;9.796;2022-11-23T04:56:23;2.30;;;1.80;;
75818;SDS011;64453;51.944;9.796;2022-11-23T04:58:53;3.20;;;1.80;;
75818;SDS011;64453;51.944;9.796;2022-11-23T05:01:20;4.67;;;2.43;;
75818;SDS011;64453;51.944;9.796;2022-11-23T05:03:47;6.93;;;2.43;;
75818;SDS011;64453;51.944;9.796;2022-11-23T05:06:14;5.57;;;2.60;;
75818;SDS011;64453;51.944;9.796;2022-11-23T05:08:41;7.03;;;2.50;;
75818;SDS011;64453;51.944;9.796;2022-11-23T05:11:08;5.30;;;2.50;;
75818;SDS011;64453;51.944;9.796;2022-11-23T05:13:35;5.30;;;2.50;;
75818;SDS011;64453;51.944;9.796;2022-11-23T05:16:04;4.80;;;2.17;;
75818;SDS011;64453;51.944;9.796;2022-11-23T05:18:31;5.73;;;2.00;;
75818;SDS011;64453;51.944;9.796;2022-11-23T05:20:58;6.07;;;1.83;;
75818;SDS011;64453;51.944;9.796;2022-11-23T05:23:25;3.00;;;1.70;;
75818;SDS011;64453;51.944;9.796;2022-11-23T05:25:53;3.30;;;1.60;;
75818;SDS011;64453;51.944;9.796;2022-11-23T05:28:20;4.23;;;2.13;;
75818;SDS011;64453;51.944;9.796;2022-11-23T05:30:48;3.70;;;2.00;;
75818;SDS011;64453;51.944;9.796;2022-11-23T05:33:17;3.87;;;1.90;;
75818;SDS011;64453;51.944;9.796;2022-11-23T05:35:44;4.37;;;2.00;;
75818;SDS011;64453;51.944;9.796;2022-11-23T05:38:12;7.60;;;2.03;;
75818;SDS011;64453;51.944;9.796;2022-11-23T05:40:39;4.00;;;1.50;;
75818;SDS011;64453;51.944;9.796;2022-11-23T05:43:06;4.30;;;2.20;;
75818;SDS011;64453;51.944;9.796;2022-11-23T05:45:33;4.87;;;1.90;;
75818;SDS011;64453;51.944;9.796;2022-11-23T05:48:00;5.47;;;2.10;;
75818;SDS011;64453;51.944;9.796;2022-11-23T05:50:28;5.03;;;1.90;;
75818;SDS011;64453;51.944;9.796;2022-11-23T05:52:55;2.63;;;1.43;;
75818;SDS011;64453;51.944;9.796;2022-11-23T05:55:23;8.10;;;4.00;;
75818;SDS011;64453;51.944;9.796;2022-11-23T05:57:51;3.73;;;2.00;;
75818;SDS011;64453;51.944;9.796;2022-11-23T06:00:18;4.07;;;1.90;;
75818;SDS011;64453;51.944;9.796;2022-11-23T06:02:46;4.93;;;2.07;;
75818;SDS011;64453;51.944;9.796;2022-11-23T06:05:12;5.10;;;2.20;;
75818;SDS011;64453;51.944;9.796;2022-11-23T06:07:41;5.00;;;2.10;;
75818;SDS011;64453;51.944;9.796;2022-11-23T06:10:09;9.00;;;2.70;;
75818;SDS011;64453;51.944;9.796;2022-11-23T06:12:37;6.47;;;2.00;;
75818;SDS011;64453;51.944;9.796;2022-11-23T06:15:04;2.73;;;2.10;;
75818;SDS011;64453;51.944;9.796;2022-11-23T06:17:33;5.90;;;2.30;;
75818;SDS011;64453;51.944;9.796;2022-11-23T06:20:01;3.10;;;1.50;;
75818;SDS011;64453;51.944;9.796;2022-11-23T06:22:29;4.47;;;2.30;;
75818;SDS011;64453;51.944;9.796;2022-11-23T06:24:58;5.47;;;2.07;;
75818;SDS011;64453;51.944;9.796;2022-11-23T06:27:27;6.23;;;1.83;;
75818;SDS011;64453;51.944;9.796;2022-11-23T06:29:54;5.37;;;2.20;;
75818;SDS011;64453;51.944;9.796;2022-11-23T06:32:21;4.90;;;2.40;;
75818;SDS011;64453;51.944;9.796;2022-11-23T06:34:48;2.87;;;1.83;;
75818;SDS011;64453;51.944;9.796;2022-11-23T06:37:14;3.03;;;2.00;;
75818;SDS011;64453;51.944;9.796;2022-11-23T06:39:41;4.70;;;1.83;;
75818;SDS011;64453;51.944;9.796;2022-11-23T06:42:10;4.97;;;2.07;;
75818;SDS011;64453;51.944;9.796;2022-11-23T06:44:37;7.20;;;2.57;;
75818;SDS011;64453;51.944;9.796;2022-11-23T06:47:04;3.03;;;1.70;;
75818;SDS011;64453;51.944;9.796;2022-11-23T06:49:31;4.33;;;2.23;;
75818;SDS011;64453;51.944;9.796;2022-11-23T06:51:58;3.47;;;2.20;;
75818;SDS011;64453;51.944;9.796;2022-11-23T06:54:25;6.93;;;2.00;;
75818;SDS011;64453;51.944;9.796;2022-11-23T06:56:53;4.83;;;2.07;;
75818;SDS011;64453;51.944;9.796;2022-11-23T06:59:22;3.77;;;2.57;;
75818;SDS011;64453;51.944;9.796;2022-11-23T07:01:50;5.07;;;2.20;;
75818;SDS011;64453;51.944;9.796;2022-11-23T07:04:17;4.53;;;2.80;;
75818;SDS011;64453;51.944;9.796;2022-11-23T07:06:44;6.03;;;3.13;;
75818;SDS011;64453;51.944;9.796;2022-11-23T07:09:11;6.60;;;2.20;;
75818;SDS011;64453;51.944;9.796;2022-11-23T07:11:38;3.93;;;2.40;;
75818;SDS011;64453;51.944;9.796;2022-11-23T07:14:05;6.93;;;2.17;;
75818;SDS011;64453;51.944;9.796;2022-11-23T07:16:33;5.10;;;2.43;;
75818;SDS011;64453;51.944;9.796;2022-11-23T07:19:00;3.63;;;2.00;;
75818;SDS011;64453;51.944;9.796;2022-11-23T07:21:28;2.93;;;1.90;;
75818;SDS011;64453;51.944;9.796;2022-11-23T07:23:55;3.63;;;1.83;;
75818;SDS011;64453;51.944;9.796;2022-11-23T07:26:22;8.10;;;2.83;;
75818;SDS011;64453;51.944;9.796;2022-11-23T07:28:49;5.67;;;2.17;;
75818;SDS011;64453;51.944;9.796;2022-11-23T07:31:16;5.60;;;2.53;;
75818;SDS011;64453;51.944;9.796;2022-11-23T07:33:44;5.27;;;2.37;;
75818;SDS011;64453;51.944;9.796;2022-11-23T07:36:12;5.87;;;2.93;;
75818;SDS011;64453;51.944;9.796;2022-11-23T07:38:39;6.03;;;3.60;;
75818;SDS011;64453;51.944;9.796;2022-11-23T07:41:06;5.93;;;4.57;;
75818;SDS011;64453;51.944;9.796;2022-11-23T07:43:33;5.17;;;3.87;;
75818;SDS011;64453;51.944;9.796;2022-11-23T07:46:00;5.40;;;3.43;;
75818;SDS011;64453;51.944;9.796;2022-11-23T07:48:27;3.67;;;2.37;;
75818;SDS011;64453;51.944;9.796;2022-11-23T07:50:56;8.03;;;2.60;;
75818;SDS011;64453;51.944;9.796;2022-11-23T07:53:23;7.03;;;2.53;;
75818;SDS011;64453;51.944;9.796;2022-11-23T07:55:54;4.87;;;2.93;;
75818;SDS011;64453;51.944;9.796;2022-11-23T07:58:22;7.60;;;3.80;;
75818;SDS011;64453;51.944;9.796;2022-11-23T08:00:50;8.03;;;3.70;;
75818;SDS011;64453;51.944;9.796;2022-11-23T08:03:17;3.30;;;2.40;;
75818;SDS011;64453;51.944;9.796;2022-11-23T08:05:45;3.63;;;2.50;;
75818;SDS011;64453;51.944;9.796;2022-11-23T08:08:13;5.10;;;3.00;;
75818;SDS011;64453;51.944;9.796;2022-11-23T08:10:40;5.20;;;2.70;;
75818;SDS011;64453;51.944;9.796;2022-11-23T08:13:07;6.90;;;4.20;;
75818;SDS011;64453;51.944;9.796;2022-11-23T08:15:34;4.63;;;3.83;;
75818;SDS011;64453;51.944;9.796;2022-11-23T08:18:02;3.30;;;2.53;;
75818;SDS011;64453;51.944;9.796;2022-11-23T08:20:30;3.27;;;2.10;;
75818;SDS011;64453;51.944;9.796;2022-11-23T08:22:58;4.00;;;2.27;;
75818;SDS011;64453;51.944;9.796;2022-11-23T08:25:28;3.03;;;1.97;;
75818;SDS011;64453;51.944;9.796;2022-11-23T08:27:56;4.80;;;2.00;;
75818;SDS011;64453;51.944;9.796;2022-11-23T08:30:25;3.60;;;2.27;;
75818;SDS011;64453;51.944;9.796;2022-11-23T08:32:53;5.77;;;2.70;;
75818;SDS011;64453;51.944;9.796;2022-11-23T08:35:21;6.10;;;2.87;;
75818;SDS011;64453;51.944;9.796;2022-11-23T08:37:48;5.03;;;2.80;;
75818;SDS011;64453;51.944;9.796;2022-11-23T08:40:15;4.53;;;1.90;;
75818;SDS011;64453;51.944;9.796;2022-11-23T08:42:44;4.70;;;2.33;;
75818;SDS011;64453;51.944;9.796;2022-11-23T08:45:14;3.77;;;2.27;;
75818;SDS011;64453;51.944;9.796;2022-11-23T08:47:42;5.10;;;2.50;;
75818;SDS011;64453;51.944;9.796;2022-11-23T08:50:09;4.30;;;2.90;;
75818;SDS011;64453;51.944;9.796;2022-11-23T08:52:36;5.80;;;2.67;;
75818;SDS011;64453;51.944;9.796;2022-11-23T08:55:04;4.60;;;2.50;;
75818;SDS011;64453;51.944;9.796;2022-11-23T08:57:32;3.60;;;2.23;;
75818;SDS011;64453;51.944;9.796;2022-11-23T09:00:00;2.87;;;2.23;;
75818;SDS011;64453;51.944;9.796;2022-11-23T09:02:28;4.97;;;2.20;;
75818;SDS011;64453;51.944;9.796;2022-11-23T09:04:55;5.87;;;2.77;;
75818;SDS011;64453;51.944;9.796;2022-11-23T09:07:22;4.07;;;2.67;;
75818;SDS011;64453;51.944;9.796;2022-11-23T09:09:49;5.80;;;2.80;;
75818;SDS011;64453;51.944;9.796;2022-11-23T09:12:16;5.17;;;2.27;;
75818;SDS011;64453;51.944;9.796;2022-11-23T09:14:43;3.97;;;2.17;;
75818;SDS011;64453;51.944;9.796;2022-11-23T09:17:11;6.57;;;2.97;;
75818;SDS011;64453;51.944;9.796;2022-11-23T09:19:38;5.93;;;2.47;;
75818;SDS011;64453;51.944;9.796;2022-11-23T09:22:05;5.67;;;2.37;;
75818;SDS011;64453;51.944;9.796;2022-11-23T09:24:32;4.50;;;2.40;;
75818;SDS011;64453;51.944;9.796;2022-11-23T09:26:59;4.80;;;2.63;;
75818;SDS011;64453;51.944;9.796;2022-11-23T09:29:26;6.83;;;3.00;;
75818;SDS011;64453;51.944;9.796;2022-11-23T09:31:53;5.23;;;2.73;;
75818;SDS011;64453;51.944;9.796;2022-11-23T09:34:22;4.37;;;2.30;;
75818;SDS011;64453;51.944;9.796;2022-11-23T09:36:48;3.93;;;2.30;;
75818;SDS011;64453;51.944;9.796;2022-11-23T09:39:15;4.57;;;2.80;;
75818;SDS011;64453;51.944;9.796;2022-11-23T09:47:47;3.40;;;1.97;;
75818;SDS011;64453;51.944;9.796;2022-11-23T09:50:32;5.40;;;2.60;;
75818;SDS011;64453;51.944;9.796;2022-11-23T09:53:12;7.30;;;3.60;;
75818;SDS011;64453;51.944;9.796;2022-11-23T09:55:45;2.90;;;2.60;;
75818;SDS011;64453;51.944;9.796;2022-11-23T09:58:15;5.10;;;2.40;;
75818;SDS011;64453;51.944;9.796;2022-11-23T10:00:45;2.43;;;1.87;;
75818;SDS011;64453;51.944;9.796;2022-11-23T10:03:19;4.37;;;2.20;;
75818;SDS011;64453;51.944;9.796;2022-11-23T10:05:49;6.80;;;2.97;;
75818;SDS011;64453;51.944;9.796;2022-11-23T10:08:29;6.73;;;2.70;;
75818;SDS011;64453;51.944;9.796;2022-11-23T10:11:14;3.10;;;2.03;;
75818;SDS011;64453;51.944;9.796;2022-11-23T10:14:19;3.53;;;1.60;;
75818;SDS011;64453;51.944;9.796;2022-11-23T10:17:07;3.00;;;1.83;;
75818;SDS011;64453;51.944;9.796;2022-11-23T10:19:46;2.73;;;1.87;;
75818;SDS011;64453;51.944;9.796;2022-11-23T10:22:40;2.83;;;2.07;;
75818;SDS011;64453;51.944;9.796;2022-11-23T10:25:14;4.20;;;2.00;;
75818;SDS011;64453;51.944;9.796;2022-11-23T10:27:44;3.70;;;2.43;;
75818;SDS011;64453;51.944;9.796;2022-11-23T10:30:14;4.70;;;2.50;;
75818;SDS011;64453;51.944;9.796;2022-11-23T10:32:45;4.13;;;2.10;;
75818;SDS011;64453;51.944;9.796;2022-11-23T10:35:16;3.93;;;1.60;;
75818;SDS011;64453;51.944;9.796;2022-11-23T10:37:49;4.40;;;1.73;;
75818;SDS011;64453;51.944;9.796;2022-11-23T10:40:17;2.93;;;1.73;;
75818;SDS011;64453;51.944;9.796;2022-11-23T10:42:50;3.20;;;1.57;;
75818;SDS011;64453;51.944;9.796;2022-11-23T10:45:23;3.70;;;1.97;;
75818;SDS011;64453;51.944;9.796;2022-11-23T10:47:53;4.60;;;2.13;;
75818;SDS011;64453;51.944;9.796;2022-11-23T10:50:24;5.60;;;2.50;;
75818;SDS011;64453;51.944;9.796;2022-11-23T10:52:56;4.10;;;2.67;;
75818;SDS011;64453;51.944;9.796;2022-11-23T10:55:27;2.80;;;2.20;;
75818;SDS011;64453;51.944;9.796;2022-11-23T10:57:57;4.80;;;2.77;;
75818;SDS011;64453;51.944;9.796;2022-11-23T11:00:26;3.90;;;2.80;;
75818;SDS011;64453;51.944;9.796;2022-11-23T11:02:54;5.83;;;2.83;;
75818;SDS011;64453;51.944;9.796;2022-11-23T11:05:25;4.97;;;2.10;;
75818;SDS011;64453;51.944;9.796;2022-11-23T11:07:57;5.53;;;2.53;;
75818;SDS011;64453;51.944;9.796;2022-11-23T11:10:37;6.10;;;2.40;;
75818;SDS011;64453;51.944;9.796;2022-11-23T11:13:20;5.70;;;2.33;;
75818;SDS011;64453;51.944;9.796;2022-11-23T11:15:52;2.30;;;1.70;;
75818;SDS011;64453;51.944;9.796;2022-11-23T11:18:23;4.70;;;1.90;;
75818;SDS011;64453;51.944;9.796;2022-11-23T11:20:59;3.77;;;1.80;;
75818;SDS011;64453;51.944;9.796;2022-11-23T11:23:30;3.60;;;2.10;;
75818;SDS011;64453;51.944;9.796;2022-11-23T11:26:04;4.23;;;1.77;;
75818;SDS011;64453;51.944;9.796;2022-11-23T11:28:45;2.50;;;1.93;;
75818;SDS011;64453;51.944;9.796;2022-11-23T11:34:15;4.60;;;1.63;;
75818;SDS011;64453;51.944;9.796;2022-11-23T11:36:50;5.07;;;2.00;;
75818;SDS011;64453;51.944;9.796;2022-11-23T11:39:27;3.30;;;1.87;;
75818;SDS011;64453;51.944;9.796;2022-11-23T11:41:59;3.43;;;2.27;;
75818;SDS011;64453;51.944;9.796;2022-11-23T11:44:33;5.80;;;2.27;;
75818;SDS011;64453;51.944;9.796;2022-11-23T11:47:08;3.90;;;1.93;;
75818;SDS011;64453;51.944;9.796;2022-11-23T11:49:47;3.67;;;2.13;;
75818;SDS011;64453;51.944;9.796;2022-11-23T11:52:16;5.10;;;2.10;;
75818;SDS011;64453;51.944;9.796;2022-11-23T11:54:50;5.97;;;2.57;;
75818;SDS011;64453;51.944;9.796;2022-11-23T11:57:23;7.87;;;2.60;;
75818;SDS011;64453;51.944;9.796;2022-11-23T11:59:55;3.97;;;1.70;;
75818;SDS011;64453;51.944;9.796;2022-11-23T12:02:23;6.27;;;2.13;;
75818;SDS011;64453;51.944;9.796;2022-11-23T12:04:53;5.67;;;2.50;;
75818;SDS011;64453;51.944;9.796;2022-11-23T12:07:28;6.17;;;2.87;;
75818;SDS011;64453;51.944;9.796;2022-11-23T12:10:04;6.27;;;2.47;;
75818;SDS011;64453;51.944;9.796;2022-11-23T12:12:37;9.10;;;2.40;;
75818;SDS011;64453;51.944;9.796;2022-11-23T12:15:05;6.37;;;2.50;;
75818;SDS011;64453;51.944;9.796;2022-11-23T12:20:47;4.40;;;2.30;;
75818;SDS011;64453;51.944;9.796;2022-11-23T12:23:25;6.60;;;2.63;;
75818;SDS011;64453;51.944;9.796;2022-11-23T12:26:14;5.00;;;2.20;;
75818;SDS011;64453;51.944;9.796;2022-11-23T12:29:09;6.13;;;2.10;;
75818;SDS011;64453;51.944;9.796;2022-11-23T12:32:11;4.43;;;1.90;;
75818;SDS011;64453;51.944;9.796;2022-11-23T12:34:54;4.97;;;1.77;;
75818;SDS011;64453;51.944;9.796;2022-11-23T12:37:53;5.50;;;1.97;;
75818;SDS011;64453;51.944;9.796;2022-11-23T12:40:37;3.57;;;1.87;;
75818;SDS011;64453;51.944;9.796;2022-11-23T12:43:22;6.13;;;1.70;;
75818;SDS011;64453;51.944;9.796;2022-11-23T12:46:02;4.70;;;1.50;;
75818;SDS011;64453;51.944;9.796;2022-11-23T12:48:47;3.33;;;2.00;;
75818;SDS011;64453;51.944;9.796;2022-11-23T12:51:32;6.50;;;1.70;;
75818;SDS011;64453;51.944;9.796;2022-11-23T12:54:11;3.90;;;1.77;;
75818;SDS011;64453;51.944;9.796;2022-11-23T12:57:03;2.13;;;1.90;;
75818;SDS011;64453;51.944;9.796;2022-11-23T12:59:40;6.60;;;2.40;;
75818;SDS011;64453;51.944;9.796;2022-11-23T13:02:15;5.20;;;1.50;;
75818;SDS011;64453;51.944;9.796;2022-11-23T13:08:53;4.33;;;1.60;;
75818;SDS011;64453;51.944;9.796;2022-11-23T13:11:50;4.33;;;2.30;;
75818;SDS011;64453;51.944;9.796;2022-11-23T13:14:34;2.60;;;1.80;;
75818;SDS011;64453;51.944;9.796;2022-11-23T13:17:18;4.67;;;2.07;;
75818;SDS011;64453;51.944;9.796;2022-11-23T13:22:46;2.87;;;1.70;;
75818;SDS011;64453;51.944;9.796;2022-11-23T13:25:24;4.10;;;1.60;;
75818;SDS011;64453;51.944;9.796;2022-11-23T13:27:53;4.83;;;1.73;;
75818;SDS011;64453;51.944;9.796;2022-11-23T13:30:25;5.43;;;1.80;;
75818;SDS011;64453;51.944;9.796;2022-11-23T13:33:02;7.53;;;1.90;;
75818;SDS011;64453;51.944;9.796;2022-11-23T13:35:57;7.07;;;2.03;;
75818;SDS011;64453;51.944;9.796;2022-11-23T13:38:27;2.87;;;2.07;;
75818;SDS011;64453;51.944;9.796;2022-11-23T13:41:02;6.93;;;2.17;;
75818;SDS011;64453;51.944;9.796;2022-11-23T13:44:22;5.13;;;1.47;;
75818;SDS011;64453;51.944;9.796;2022-11-23T13:47:01;3.90;;;1.97;;
75818;SDS011;64453;51.944;9.796;2022-11-23T13:49:44;4.93;;;1.80;;
75818;SDS011;64453;51.944;9.796;2022-11-23T13:52:23;4.77;;;1.93;;
75818;SDS011;64453;51.944;9.796;2022-11-23T13:54:54;6.17;;;2.43;;
75818;SDS011;64453;51.944;9.796;2022-11-23T13:57:28;3.73;;;1.70;;
75818;SDS011;64453;51.944;9.796;2022-11-23T14:06:28;5.30;;;2.10;;
75818;SDS011;64453;51.944;9.796;2022-11-23T14:09:11;4.60;;;2.00;;
75818;SDS011;64453;51.944;9.796;2022-11-23T14:11:59;4.00;;;1.63;;
75818;SDS011;64453;51.944;9.796;2022-11-23T14:14:48;3.27;;;1.60;;
75818;SDS011;64453;51.944;9.796;2022-11-23T14:20:42;3.33;;;1.77;;
75818;SDS011;64453;51.944;9.796;2022-11-23T14:23:23;3.30;;;1.43;;
75818;SDS011;64453;51.944;9.796;2022-11-23T14:26:25;5.43;;;1.77;;
75818;SDS011;64453;51.944;9.796;2022-11-23T14:29:07;7.20;;;2.03;;
75818;SDS011;64453;51.944;9.796;2022-11-23T14:32:03;4.10;;;2.00;;
75818;SDS011;64453;51.944;9.796;2022-11-23T14:34:49;2.40;;;1.67;;
75818;SDS011;64453;51.944;9.796;2022-11-23T14:37:38;5.80;;;1.80;;
75818;SDS011;64453;51.944;9.796;2022-11-23T14:40:21;6.00;;;2.13;;
75818;SDS011;64453;51.944;9.796;2022-11-23T14:42:53;5.57;;;2.33;;
75818;SDS011;64453;51.944;9.796;2022-11-23T14:45:22;2.43;;;2.20;;
75818;SDS011;64453;51.944;9.796;2022-11-23T14:47:54;4.23;;;2.03;;
75818;SDS011;64453;51.944;9.796;2022-11-23T14:50:22;5.23;;;2.37;;
75818;SDS011;64453;51.944;9.796;2022-11-23T14:52:53;4.03;;;2.03;;
75818;SDS011;64453;51.944;9.796;2022-11-23T14:55:23;4.70;;;2.00;;
75818;SDS011;64453;51.944;9.796;2022-11-23T14:57:54;4.53;;;2.00;;
75818;SDS011;64453;51.944;9.796;2022-11-23T15:00:27;4.53;;;2.00;;
75818;SDS011;64453;51.944;9.796;2022-11-23T15:02:59;6.40;;;2.93;;
75818;SDS011;64453;51.944;9.796;2022-11-23T15:05:32;6.70;;;4.33;;
75818;SDS011;64453;51.944;9.796;2022-11-23T15:08:03;9.20;;;6.43;;
75818;SDS011;64453;51.944;9.796;2022-11-23T15:10:37;8.40;;;4.63;;
75818;SDS011;64453;51.944;9.796;2022-11-23T15:13:18;8.23;;;5.60;;
75818;SDS011;64453;51.944;9.796;2022-11-23T15:15:50;9.10;;;4.00;;
75818;SDS011;64453;51.944;9.796;2022-11-23T15:18:26;6.67;;;4.87;;
75818;SDS011;64453;51.944;9.796;2022-11-23T15:20:56;14.57;;;10.47;;
75818;SDS011;64453;51.944;9.796;2022-11-23T15:23:28;10.77;;;8.53;;
75818;SDS011;64453;51.944;9.796;2022-11-23T15:26:01;9.13;;;6.70;;
75818;SDS011;64453;51.944;9.796;2022-11-23T15:28:32;6.23;;;3.83;;
75818;SDS011;64453;51.944;9.796;2022-11-23T15:31:15;7.70;;;5.50;;
75818;SDS011;64453;51.944;9.796;2022-11-23T15:33:54;10.10;;;9.03;;
75818;SDS011;64453;51.944;9.796;2022-11-23T15:36:24;10.83;;;9.37;;
75818;SDS011;64453;51.944;9.796;2022-11-23T15:38:56;10.03;;;8.47;;
75818;SDS011;64453;51.944;9.796;2022-11-23T15:41:26;7.20;;;6.40;;